sensor_id;sensor_type;location;lat;lon;timestamp;P1;durP1;ratioP1;P2;durP2;ratioP2
15629;SDS011;7914;50.842;0.166;2023-03-21T00:00:04;12.43;;;4.70;;
15629;SDS011;7914;50.842;0.166;2023-03-21T00:02:31;14.77;;;4.32;;
15629;SDS011;7914;50.842;0.166;2023-03-21T00:04:58;15.43;;;4.72;;
15629;SDS011;7914;50.842;0.166;2023-03-21T00:07:24;16.08;;;4.78;;
15629;SDS011;7914;50.842;0.166;2023-03-21T00:09:49;12.85;;;5.38;;
15629;SDS011;7914;50.842;0.166;2023-03-21T00:12:17;21.67;;;4.85;;
15629;SDS011;7914;50.842;0.166;2023-03-21T00:14:45;16.65;;;5.22;;
15629;SDS011;7914;50.842;0.166;2023-03-21T00:17:11;16.23;;;5.88;;
15629;SDS011;7914;50.842;0.166;2023-03-21T00:19:37;20.05;;;5.55;;
15629;SDS011;7914;50.842;0.166;2023-03-21T00:22:03;19.30;;;6.82;;
15629;SDS011;7914;50.842;0.166;2023-03-21T00:24:31;19.20;;;5.75;;
15629;SDS011;7914;50.842;0.166;2023-03-21T00:26:56;18.30;;;6.95;;
15629;SDS011;7914;50.842;0.166;2023-03-21T00:29:22;21.77;;;6.57;;
15629;SDS011;7914;50.842;0.166;2023-03-21T00:31:48;15.48;;;6.57;;
15629;SDS011;7914;50.842;0.166;2023-03-21T00:34:14;23.38;;;7.40;;
15629;SDS011;7914;50.842;0.166;2023-03-21T00:36:40;16.95;;;6.50;;
15629;SDS011;7914;50.842;0.166;2023-03-21T00:39:06;23.70;;;7.25;;
15629;SDS011;7914;50.842;0.166;2023-03-21T00:41:31;18.38;;;6.50;;
15629;SDS011;7914;50.842;0.166;2023-03-21T00:43:58;20.17;;;7.72;;
15629;SDS011;7914;50.842;0.166;2023-03-21T00:46:24;26.40;;;7.53;;
15629;SDS011;7914;50.842;0.166;2023-03-21T00:48:49;24.77;;;7.22;;
15629;SDS011;7914;50.842;0.166;2023-03-21T00:51:19;22.20;;;6.95;;
15629;SDS011;7914;50.842;0.166;2023-03-21T00:53:54;27.20;;;6.45;;
15629;SDS011;7914;50.842;0.166;2023-03-21T00:56:22;15.70;;;5.80;;
15629;SDS011;7914;50.842;0.166;2023-03-21T00:58:48;14.32;;;6.22;;
15629;SDS011;7914;50.842;0.166;2023-03-21T01:01:15;15.57;;;5.32;;
15629;SDS011;7914;50.842;0.166;2023-03-21T01:03:41;14.55;;;4.65;;
15629;SDS011;7914;50.842;0.166;2023-03-21T01:06:10;21.60;;;4.75;;
15629;SDS011;7914;50.842;0.166;2023-03-21T01:08:41;15.23;;;5.55;;
15629;SDS011;7914;50.842;0.166;2023-03-21T01:11:10;15.85;;;4.88;;
15629;SDS011;7914;50.842;0.166;2023-03-21T01:13:37;16.50;;;5.15;;
15629;SDS011;7914;50.842;0.166;2023-03-21T01:16:04;14.52;;;5.07;;
15629;SDS011;7914;50.842;0.166;2023-03-21T01:18:32;18.20;;;5.20;;
15629;SDS011;7914;50.842;0.166;2023-03-21T01:21:00;15.20;;;4.85;;
15629;SDS011;7914;50.842;0.166;2023-03-21T01:23:27;17.40;;;5.00;;
15629;SDS011;7914;50.842;0.166;2023-03-21T01:25:54;16.80;;;4.72;;
15629;SDS011;7914;50.842;0.166;2023-03-21T01:28:21;15.77;;;5.25;;
15629;SDS011;7914;50.842;0.166;2023-03-21T01:30:50;10.50;;;4.90;;
15629;SDS011;7914;50.842;0.166;2023-03-21T01:33:16;14.95;;;4.85;;
15629;SDS011;7914;50.842;0.166;2023-03-21T01:35:43;14.48;;;4.65;;
15629;SDS011;7914;50.842;0.166;2023-03-21T01:38:09;12.02;;;3.95;;
15629;SDS011;7914;50.842;0.166;2023-03-21T01:40:35;18.92;;;4.38;;
15629;SDS011;7914;50.842;0.166;2023-03-21T01:43:02;27.38;;;5.53;;
15629;SDS011;7914;50.842;0.166;2023-03-21T01:48:45;15.10;;;4.90;;
15629;SDS011;7914;50.842;0.166;2023-03-21T01:51:18;13.30;;;4.35;;
15629;SDS011;7914;50.842;0.166;2023-03-21T01:53:44;16.95;;;4.90;;
15629;SDS011;7914;50.842;0.166;2023-03-21T01:56:13;12.70;;;4.07;;
15629;SDS011;7914;50.842;0.166;2023-03-21T01:58:52;18.80;;;4.72;;
15629;SDS011;7914;50.842;0.166;2023-03-21T02:01:22;18.10;;;5.28;;
15629;SDS011;7914;50.842;0.166;2023-03-21T02:03:48;17.13;;;4.28;;
15629;SDS011;7914;50.842;0.166;2023-03-21T02:09:04;14.48;;;4.57;;
15629;SDS011;7914;50.842;0.166;2023-03-21T02:11:33;15.10;;;4.20;;
15629;SDS011;7914;50.842;0.166;2023-03-21T02:14:00;13.18;;;4.00;;
15629;SDS011;7914;50.842;0.166;2023-03-21T02:16:36;15.48;;;4.35;;
15629;SDS011;7914;50.842;0.166;2023-03-21T02:29:45;13.35;;;3.97;;
15629;SDS011;7914;50.842;0.166;2023-03-21T02:35:18;11.95;;;3.80;;
15629;SDS011;7914;50.842;0.166;2023-03-21T02:38:01;16.83;;;3.67;;
15629;SDS011;7914;50.842;0.166;2023-03-21T02:43:43;20.23;;;4.15;;
15629;SDS011;7914;50.842;0.166;2023-03-21T02:48:52;15.30;;;3.72;;
15629;SDS011;7914;50.842;0.166;2023-03-21T02:51:22;12.38;;;3.20;;
15629;SDS011;7914;50.842;0.166;2023-03-21T02:54:03;15.07;;;3.35;;
15629;SDS011;7914;50.842;0.166;2023-03-21T02:56:33;11.07;;;3.15;;
15629;SDS011;7914;50.842;0.166;2023-03-21T02:59:01;14.02;;;2.75;;
15629;SDS011;7914;50.842;0.166;2023-03-21T03:01:29;11.30;;;2.95;;
15629;SDS011;7914;50.842;0.166;2023-03-21T03:03:56;13.10;;;2.88;;
15629;SDS011;7914;50.842;0.166;2023-03-21T03:06:23;7.82;;;2.70;;
15629;SDS011;7914;50.842;0.166;2023-03-21T03:12:30;14.65;;;2.90;;
15629;SDS011;7914;50.842;0.166;2023-03-21T03:20:19;9.50;;;2.78;;
15629;SDS011;7914;50.842;0.166;2023-03-21T03:22:54;12.98;;;2.63;;
15629;SDS011;7914;50.842;0.166;2023-03-21T03:25:38;11.63;;;2.85;;
15629;SDS011;7914;50.842;0.166;2023-03-21T03:28:13;10.07;;;2.78;;
15629;SDS011;7914;50.842;0.166;2023-03-21T03:30:41;12.00;;;2.70;;
15629;SDS011;7914;50.842;0.166;2023-03-21T03:33:08;14.57;;;4.03;;
15629;SDS011;7914;50.842;0.166;2023-03-21T03:35:38;12.70;;;2.92;;
15629;SDS011;7914;50.842;0.166;2023-03-21T03:38:05;13.40;;;3.63;;
15629;SDS011;7914;50.842;0.166;2023-03-21T03:40:40;11.43;;;3.03;;
15629;SDS011;7914;50.842;0.166;2023-03-21T03:43:10;15.05;;;3.38;;
15629;SDS011;7914;50.842;0.166;2023-03-21T03:45:49;14.38;;;3.05;;
15629;SDS011;7914;50.842;0.166;2023-03-21T03:48:27;9.68;;;2.53;;
15629;SDS011;7914;50.842;0.166;2023-03-21T03:50:58;13.80;;;2.83;;
15629;SDS011;7914;50.842;0.166;2023-03-21T03:53:50;13.40;;;2.65;;
15629;SDS011;7914;50.842;0.166;2023-03-21T03:56:20;14.50;;;3.10;;
15629;SDS011;7914;50.842;0.166;2023-03-21T03:58:47;8.25;;;2.75;;
15629;SDS011;7914;50.842;0.166;2023-03-21T04:01:14;12.55;;;2.92;;
15629;SDS011;7914;50.842;0.166;2023-03-21T04:03:42;14.23;;;2.65;;
15629;SDS011;7914;50.842;0.166;2023-03-21T04:08:35;10.38;;;2.90;;
15629;SDS011;7914;50.842;0.166;2023-03-21T04:11:01;16.00;;;3.20;;
15629;SDS011;7914;50.842;0.166;2023-03-21T04:13:27;15.70;;;3.67;;
15629;SDS011;7914;50.842;0.166;2023-03-21T04:15:53;12.38;;;3.63;;
15629;SDS011;7914;50.842;0.166;2023-03-21T04:18:20;8.80;;;3.30;;
15629;SDS011;7914;50.842;0.166;2023-03-21T04:20:48;16.70;;;4.65;;
15629;SDS011;7914;50.842;0.166;2023-03-21T04:23:15;13.82;;;3.08;;
15629;SDS011;7914;50.842;0.166;2023-03-21T04:25:43;12.70;;;2.78;;
15629;SDS011;7914;50.842;0.166;2023-03-21T04:28:09;14.25;;;3.00;;
15629;SDS011;7914;50.842;0.166;2023-03-21T04:30:36;13.52;;;2.90;;
15629;SDS011;7914;50.842;0.166;2023-03-21T04:33:03;12.55;;;3.50;;
15629;SDS011;7914;50.842;0.166;2023-03-21T04:35:29;15.50;;;3.05;;
15629;SDS011;7914;50.842;0.166;2023-03-21T04:37:55;11.32;;;2.90;;
15629;SDS011;7914;50.842;0.166;2023-03-21T04:40:21;16.52;;;4.18;;
15629;SDS011;7914;50.842;0.166;2023-03-21T04:42:47;14.32;;;2.88;;
15629;SDS011;7914;50.842;0.166;2023-03-21T04:45:13;12.82;;;3.70;;
15629;SDS011;7914;50.842;0.166;2023-03-21T04:47:40;8.15;;;2.80;;
15629;SDS011;7914;50.842;0.166;2023-03-21T04:50:06;14.32;;;3.03;;
15629;SDS011;7914;50.842;0.166;2023-03-21T04:52:33;12.52;;;2.75;;
15629;SDS011;7914;50.842;0.166;2023-03-21T04:54:59;10.70;;;3.05;;
15629;SDS011;7914;50.842;0.166;2023-03-21T04:57:26;17.95;;;4.20;;
15629;SDS011;7914;50.842;0.166;2023-03-21T04:59:51;14.68;;;2.97;;
15629;SDS011;7914;50.842;0.166;2023-03-21T05:02:17;13.25;;;3.33;;
15629;SDS011;7914;50.842;0.166;2023-03-21T05:04:43;17.95;;;3.05;;
15629;SDS011;7914;50.842;0.166;2023-03-21T05:07:08;12.05;;;3.30;;
15629;SDS011;7914;50.842;0.166;2023-03-21T05:09:35;15.45;;;3.10;;
15629;SDS011;7914;50.842;0.166;2023-03-21T05:12:00;9.70;;;2.92;;
15629;SDS011;7914;50.842;0.166;2023-03-21T05:14:27;10.45;;;2.80;;
15629;SDS011;7914;50.842;0.166;2023-03-21T05:16:52;12.73;;;3.53;;
15629;SDS011;7914;50.842;0.166;2023-03-21T05:19:27;9.13;;;3.35;;
15629;SDS011;7914;50.842;0.166;2023-03-21T05:22:01;8.27;;;2.05;;
15629;SDS011;7914;50.842;0.166;2023-03-21T05:24:31;6.80;;;2.63;;
15629;SDS011;7914;50.842;0.166;2023-03-21T05:26:57;15.45;;;2.65;;
15629;SDS011;7914;50.842;0.166;2023-03-21T05:29:27;11.85;;;2.72;;
15629;SDS011;7914;50.842;0.166;2023-03-21T05:31:54;15.13;;;2.67;;
15629;SDS011;7914;50.842;0.166;2023-03-21T05:34:20;14.35;;;3.15;;
15629;SDS011;7914;50.842;0.166;2023-03-21T05:36:46;12.77;;;3.20;;
15629;SDS011;7914;50.842;0.166;2023-03-21T05:39:12;11.30;;;2.80;;
15629;SDS011;7914;50.842;0.166;2023-03-21T05:41:37;10.05;;;2.63;;
15629;SDS011;7914;50.842;0.166;2023-03-21T05:44:03;9.82;;;3.10;;
15629;SDS011;7914;50.842;0.166;2023-03-21T05:46:28;12.80;;;3.22;;
15629;SDS011;7914;50.842;0.166;2023-03-21T05:48:54;16.33;;;3.25;;
15629;SDS011;7914;50.842;0.166;2023-03-21T05:51:20;11.07;;;2.33;;
15629;SDS011;7914;50.842;0.166;2023-03-21T05:53:46;17.00;;;2.70;;
15629;SDS011;7914;50.842;0.166;2023-03-21T05:56:12;12.48;;;3.38;;
15629;SDS011;7914;50.842;0.166;2023-03-21T05:58:38;15.27;;;2.53;;
15629;SDS011;7914;50.842;0.166;2023-03-21T06:01:04;10.93;;;2.65;;
15629;SDS011;7914;50.842;0.166;2023-03-21T06:03:30;7.38;;;2.25;;
15629;SDS011;7914;50.842;0.166;2023-03-21T06:05:56;11.50;;;2.55;;
15629;SDS011;7914;50.842;0.166;2023-03-21T06:08:22;9.98;;;2.90;;
15629;SDS011;7914;50.842;0.166;2023-03-21T06:10:49;13.38;;;2.80;;
15629;SDS011;7914;50.842;0.166;2023-03-21T06:13:14;10.57;;;2.35;;
15629;SDS011;7914;50.842;0.166;2023-03-21T06:15:40;10.48;;;2.28;;
15629;SDS011;7914;50.842;0.166;2023-03-21T06:18:07;9.82;;;2.45;;
15629;SDS011;7914;50.842;0.166;2023-03-21T06:20:32;9.02;;;2.63;;
15629;SDS011;7914;50.842;0.166;2023-03-21T06:22:58;12.63;;;2.30;;
15629;SDS011;7914;50.842;0.166;2023-03-21T06:25:24;9.20;;;2.40;;
15629;SDS011;7914;50.842;0.166;2023-03-21T06:27:50;8.90;;;2.30;;
15629;SDS011;7914;50.842;0.166;2023-03-21T06:30:16;9.88;;;2.63;;
15629;SDS011;7914;50.842;0.166;2023-03-21T06:32:42;11.10;;;2.10;;
15629;SDS011;7914;50.842;0.166;2023-03-21T06:35:07;13.45;;;2.80;;
15629;SDS011;7914;50.842;0.166;2023-03-21T06:37:33;13.90;;;2.50;;
15629;SDS011;7914;50.842;0.166;2023-03-21T06:39:59;10.27;;;2.30;;
15629;SDS011;7914;50.842;0.166;2023-03-21T06:42:25;11.80;;;2.50;;
15629;SDS011;7914;50.842;0.166;2023-03-21T06:44:51;14.23;;;2.70;;
15629;SDS011;7914;50.842;0.166;2023-03-21T06:47:16;9.48;;;2.53;;
15629;SDS011;7914;50.842;0.166;2023-03-21T06:49:42;11.95;;;2.45;;
15629;SDS011;7914;50.842;0.166;2023-03-21T06:52:09;8.82;;;2.03;;
15629;SDS011;7914;50.842;0.166;2023-03-21T06:54:35;15.75;;;3.60;;
15629;SDS011;7914;50.842;0.166;2023-03-21T06:57:01;16.65;;;4.13;;
15629;SDS011;7914;50.842;0.166;2023-03-21T06:59:27;8.63;;;3.15;;
15629;SDS011;7914;50.842;0.166;2023-03-21T07:01:53;14.60;;;2.33;;
15629;SDS011;7914;50.842;0.166;2023-03-21T07:04:18;12.73;;;3.33;;
15629;SDS011;7914;50.842;0.166;2023-03-21T07:06:45;15.98;;;2.97;;
15629;SDS011;7914;50.842;0.166;2023-03-21T07:09:10;8.73;;;2.55;;
15629;SDS011;7914;50.842;0.166;2023-03-21T07:11:36;16.00;;;3.08;;
15629;SDS011;7914;50.842;0.166;2023-03-21T07:14:02;10.82;;;2.78;;
15629;SDS011;7914;50.842;0.166;2023-03-21T07:16:28;12.15;;;3.70;;
15629;SDS011;7914;50.842;0.166;2023-03-21T07:18:54;10.07;;;2.42;;
15629;SDS011;7914;50.842;0.166;2023-03-21T07:21:21;16.25;;;3.20;;
15629;SDS011;7914;50.842;0.166;2023-03-21T07:23:47;11.23;;;2.85;;
15629;SDS011;7914;50.842;0.166;2023-03-21T07:26:14;11.07;;;2.95;;
15629;SDS011;7914;50.842;0.166;2023-03-21T07:28:42;10.23;;;2.83;;
15629;SDS011;7914;50.842;0.166;2023-03-21T07:31:11;13.52;;;4.05;;
15629;SDS011;7914;50.842;0.166;2023-03-21T07:33:39;10.52;;;2.67;;
15629;SDS011;7914;50.842;0.166;2023-03-21T07:36:08;9.90;;;2.33;;
15629;SDS011;7914;50.842;0.166;2023-03-21T07:38:36;14.82;;;2.40;;
15629;SDS011;7914;50.842;0.166;2023-03-21T07:41:02;13.48;;;2.78;;
15629;SDS011;7914;50.842;0.166;2023-03-21T07:43:28;14.45;;;3.00;;
15629;SDS011;7914;50.842;0.166;2023-03-21T07:45:57;16.33;;;3.40;;
15629;SDS011;7914;50.842;0.166;2023-03-21T07:48:24;8.52;;;2.75;;
15629;SDS011;7914;50.842;0.166;2023-03-21T07:50:49;12.77;;;3.50;;
15629;SDS011;7914;50.842;0.166;2023-03-21T07:53:15;9.65;;;2.88;;
15629;SDS011;7914;50.842;0.166;2023-03-21T07:55:41;16.45;;;4.22;;
15629;SDS011;7914;50.842;0.166;2023-03-21T07:58:06;10.45;;;2.85;;
15629;SDS011;7914;50.842;0.166;2023-03-21T08:00:32;13.10;;;3.83;;
15629;SDS011;7914;50.842;0.166;2023-03-21T08:02:58;15.60;;;3.58;;
15629;SDS011;7914;50.842;0.166;2023-03-21T08:05:29;8.07;;;2.25;;
15629;SDS011;7914;50.842;0.166;2023-03-21T08:07:59;10.43;;;2.53;;
15629;SDS011;7914;50.842;0.166;2023-03-21T08:10:25;8.75;;;2.42;;
15629;SDS011;7914;50.842;0.166;2023-03-21T08:12:51;6.90;;;2.47;;
15629;SDS011;7914;50.842;0.166;2023-03-21T08:15:17;11.38;;;3.13;;
15629;SDS011;7914;50.842;0.166;2023-03-21T08:17:43;12.93;;;2.97;;
15629;SDS011;7914;50.842;0.166;2023-03-21T08:20:13;16.77;;;4.03;;
15629;SDS011;7914;50.842;0.166;2023-03-21T08:22:45;11.93;;;3.50;;
15629;SDS011;7914;50.842;0.166;2023-03-21T08:25:12;15.73;;;3.25;;
15629;SDS011;7914;50.842;0.166;2023-03-21T08:27:40;10.27;;;3.60;;
15629;SDS011;7914;50.842;0.166;2023-03-21T08:30:08;16.10;;;2.95;;
15629;SDS011;7914;50.842;0.166;2023-03-21T08:32:36;10.88;;;2.97;;
15629;SDS011;7914;50.842;0.166;2023-03-21T08:35:03;22.23;;;3.90;;
15629;SDS011;7914;50.842;0.166;2023-03-21T08:37:34;14.20;;;3.20;;
15629;SDS011;7914;50.842;0.166;2023-03-21T08:40:04;12.15;;;3.33;;
15629;SDS011;7914;50.842;0.166;2023-03-21T08:42:33;13.48;;;2.65;;
15629;SDS011;7914;50.842;0.166;2023-03-21T08:45:00;10.18;;;2.60;;
15629;SDS011;7914;50.842;0.166;2023-03-21T08:47:25;12.85;;;2.70;;
15629;SDS011;7914;50.842;0.166;2023-03-21T08:49:51;11.77;;;3.22;;
15629;SDS011;7914;50.842;0.166;2023-03-21T08:52:17;9.77;;;2.67;;
15629;SDS011;7914;50.842;0.166;2023-03-21T08:54:42;16.20;;;2.83;;
15629;SDS011;7914;50.842;0.166;2023-03-21T08:57:09;10.88;;;2.30;;
15629;SDS011;7914;50.842;0.166;2023-03-21T08:59:35;8.82;;;2.42;;
15629;SDS011;7914;50.842;0.166;2023-03-21T09:02:03;8.60;;;2.40;;
15629;SDS011;7914;50.842;0.166;2023-03-21T09:04:28;8.50;;;2.20;;
15629;SDS011;7914;50.842;0.166;2023-03-21T09:06:55;12.20;;;2.55;;
15629;SDS011;7914;50.842;0.166;2023-03-21T09:09:21;7.10;;;3.15;;
15629;SDS011;7914;50.842;0.166;2023-03-21T09:11:46;11.90;;;2.67;;
15629;SDS011;7914;50.842;0.166;2023-03-21T09:14:12;10.55;;;2.42;;
15629;SDS011;7914;50.842;0.166;2023-03-21T09:16:38;13.05;;;2.72;;
15629;SDS011;7914;50.842;0.166;2023-03-21T09:19:03;12.07;;;2.75;;
15629;SDS011;7914;50.842;0.166;2023-03-21T09:23:59;8.02;;;2.70;;
15629;SDS011;7914;50.842;0.166;2023-03-21T09:26:25;9.70;;;2.33;;
15629;SDS011;7914;50.842;0.166;2023-03-21T09:28:55;9.13;;;3.42;;
15629;SDS011;7914;50.842;0.166;2023-03-21T09:31:22;14.30;;;3.10;;
15629;SDS011;7914;50.842;0.166;2023-03-21T09:33:50;11.38;;;2.65;;
15629;SDS011;7914;50.842;0.166;2023-03-21T09:36:18;13.13;;;2.97;;
15629;SDS011;7914;50.842;0.166;2023-03-21T09:38:46;10.93;;;2.50;;
15629;SDS011;7914;50.842;0.166;2023-03-21T09:41:31;12.07;;;2.85;;
15629;SDS011;7914;50.842;0.166;2023-03-21T09:49:42;13.18;;;3.45;;
15629;SDS011;7914;50.842;0.166;2023-03-21T09:52:32;15.02;;;3.13;;
15629;SDS011;7914;50.842;0.166;2023-03-21T09:55:18;12.18;;;3.45;;
15629;SDS011;7914;50.842;0.166;2023-03-21T09:57:48;10.80;;;2.53;;
15629;SDS011;7914;50.842;0.166;2023-03-21T10:00:21;9.50;;;2.70;;
15629;SDS011;7914;50.842;0.166;2023-03-21T10:02:53;17.00;;;2.70;;
15629;SDS011;7914;50.842;0.166;2023-03-21T10:05:27;12.23;;;3.25;;
15629;SDS011;7914;50.842;0.166;2023-03-21T10:08:08;14.07;;;3.63;;
15629;SDS011;7914;50.842;0.166;2023-03-21T10:10:54;12.52;;;3.13;;
15629;SDS011;7914;50.842;0.166;2023-03-21T10:13:28;13.18;;;2.63;;
15629;SDS011;7914;50.842;0.166;2023-03-21T10:16:01;13.93;;;3.38;;
15629;SDS011;7914;50.842;0.166;2023-03-21T10:18:39;13.80;;;3.65;;
15629;SDS011;7914;50.842;0.166;2023-03-21T10:21:10;14.32;;;3.17;;
15629;SDS011;7914;50.842;0.166;2023-03-21T10:23:41;15.80;;;2.75;;
15629;SDS011;7914;50.842;0.166;2023-03-21T10:26:07;13.13;;;2.97;;
15629;SDS011;7914;50.842;0.166;2023-03-21T10:28:36;14.77;;;3.80;;
15629;SDS011;7914;50.842;0.166;2023-03-21T10:31:06;14.43;;;3.78;;
15629;SDS011;7914;50.842;0.166;2023-03-21T10:33:34;13.52;;;2.35;;
15629;SDS011;7914;50.842;0.166;2023-03-21T10:38:34;13.98;;;3.72;;
15629;SDS011;7914;50.842;0.166;2023-03-21T10:41:04;8.27;;;2.42;;
15629;SDS011;7914;50.842;0.166;2023-03-21T10:43:31;18.55;;;2.70;;
15629;SDS011;7914;50.842;0.166;2023-03-21T10:46:04;10.77;;;2.70;;
15629;SDS011;7914;50.842;0.166;2023-03-21T10:48:52;12.30;;;3.22;;
15629;SDS011;7914;50.842;0.166;2023-03-21T10:51:19;13.77;;;3.15;;
15629;SDS011;7914;50.842;0.166;2023-03-21T10:54:07;13.57;;;4.40;;
15629;SDS011;7914;50.842;0.166;2023-03-21T10:56:37;12.63;;;2.63;;
15629;SDS011;7914;50.842;0.166;2023-03-21T10:59:09;10.23;;;2.15;;
15629;SDS011;7914;50.842;0.166;2023-03-21T11:01:42;12.25;;;2.70;;
15629;SDS011;7914;50.842;0.166;2023-03-21T11:04:17;12.40;;;2.67;;
15629;SDS011;7914;50.842;0.166;2023-03-21T11:06:56;9.07;;;2.35;;
15629;SDS011;7914;50.842;0.166;2023-03-21T11:09:26;14.48;;;2.90;;
15629;SDS011;7914;50.842;0.166;2023-03-21T11:12:09;13.10;;;2.70;;
15629;SDS011;7914;50.842;0.166;2023-03-21T11:14:38;14.35;;;2.22;;
15629;SDS011;7914;50.842;0.166;2023-03-21T11:17:16;12.63;;;2.40;;
15629;SDS011;7914;50.842;0.166;2023-03-21T11:22:17;12.27;;;2.45;;
15629;SDS011;7914;50.842;0.166;2023-03-21T11:24:50;11.57;;;2.15;;
15629;SDS011;7914;50.842;0.166;2023-03-21T11:27:18;11.65;;;2.58;;
15629;SDS011;7914;50.842;0.166;2023-03-21T11:29:46;12.55;;;2.30;;
15629;SDS011;7914;50.842;0.166;2023-03-21T11:32:20;11.10;;;3.03;;
15629;SDS011;7914;50.842;0.166;2023-03-21T11:34:58;14.27;;;3.00;;
15629;SDS011;7914;50.842;0.166;2023-03-21T11:42:51;15.02;;;2.67;;
15629;SDS011;7914;50.842;0.166;2023-03-21T11:45:28;12.60;;;2.15;;
15629;SDS011;7914;50.842;0.166;2023-03-21T11:48:00;10.18;;;2.13;;
15629;SDS011;7914;50.842;0.166;2023-03-21T11:50:43;7.65;;;1.77;;
15629;SDS011;7914;50.842;0.166;2023-03-21T11:53:29;14.18;;;2.53;;
15629;SDS011;7914;50.842;0.166;2023-03-21T11:56:27;13.20;;;2.85;;
15629;SDS011;7914;50.842;0.166;2023-03-21T12:05:00;12.65;;;2.42;;
15629;SDS011;7914;50.842;0.166;2023-03-21T12:18:44;15.73;;;2.63;;
15629;SDS011;7914;50.842;0.166;2023-03-21T12:27:10;14.68;;;2.40;;
15629;SDS011;7914;50.842;0.166;2023-03-21T12:33:00;15.93;;;3.30;;
15629;SDS011;7914;50.842;0.166;2023-03-21T12:35:49;13.18;;;2.83;;
15629;SDS011;7914;50.842;0.166;2023-03-21T12:43:50;14.23;;;2.40;;
15629;SDS011;7914;50.842;0.166;2023-03-21T12:46:26;15.27;;;3.58;;
15629;SDS011;7914;50.842;0.166;2023-03-21T12:49:12;17.05;;;2.55;;
15629;SDS011;7914;50.842;0.166;2023-03-21T12:51:46;22.95;;;3.90;;
15629;SDS011;7914;50.842;0.166;2023-03-21T12:54:32;16.08;;;3.22;;
15629;SDS011;7914;50.842;0.166;2023-03-21T12:57:10;15.70;;;3.22;;
15629;SDS011;7914;50.842;0.166;2023-03-21T13:07:32;17.90;;;3.08;;
15629;SDS011;7914;50.842;0.166;2023-03-21T13:10:02;16.50;;;2.80;;
15629;SDS011;7914;50.842;0.166;2023-03-21T13:12:40;17.23;;;2.72;;
15629;SDS011;7914;50.842;0.166;2023-03-21T13:23:05;13.57;;;2.88;;
15629;SDS011;7914;50.842;0.166;2023-03-21T13:25:36;22.23;;;3.00;;
15629;SDS011;7914;50.842;0.166;2023-03-21T13:28:12;21.48;;;3.83;;
15629;SDS011;7914;50.842;0.166;2023-03-21T13:30:47;19.90;;;3.20;;
15629;SDS011;7914;50.842;0.166;2023-03-21T13:33:15;18.00;;;3.00;;
15629;SDS011;7914;50.842;0.166;2023-03-21T13:38:31;22.20;;;3.70;;
15629;SDS011;7914;50.842;0.166;2023-03-21T13:41:14;16.40;;;2.83;;
15629;SDS011;7914;50.842;0.166;2023-03-21T13:48:59;15.50;;;2.80;;
15629;SDS011;7914;50.842;0.166;2023-03-21T13:52:34;20.42;;;3.75;;
15629;SDS011;7914;50.842;0.166;2023-03-21T13:57:11;15.02;;;3.30;;
15629;SDS011;7914;50.842;0.166;2023-03-21T13:59:47;13.45;;;2.38;;
15629;SDS011;7914;50.842;0.166;2023-03-21T14:02:19;16.55;;;3.03;;
15629;SDS011;7914;50.842;0.166;2023-03-21T14:05:02;11.90;;;2.70;;
15629;SDS011;7914;50.842;0.166;2023-03-21T14:07:40;15.40;;;3.40;;
15629;SDS011;7914;50.842;0.166;2023-03-21T14:10:16;18.17;;;4.07;;
15629;SDS011;7914;50.842;0.166;2023-03-21T14:13:02;17.05;;;2.97;;
15629;SDS011;7914;50.842;0.166;2023-03-21T14:15:51;17.05;;;2.92;;
15629;SDS011;7914;50.842;0.166;2023-03-21T14:18:19;19.45;;;4.05;;
15629;SDS011;7914;50.842;0.166;2023-03-21T14:20:53;24.92;;;3.85;;
15629;SDS011;7914;50.842;0.166;2023-03-21T14:23:21;20.05;;;3.05;;
15629;SDS011;7914;50.842;0.166;2023-03-21T14:25:47;27.00;;;3.75;;
15629;SDS011;7914;50.842;0.166;2023-03-21T14:35:40;17.45;;;3.00;;
15629;SDS011;7914;50.842;0.166;2023-03-21T14:38:07;19.17;;;3.67;;
15629;SDS011;7914;50.842;0.166;2023-03-21T14:40:50;29.20;;;3.65;;
15629;SDS011;7914;50.842;0.166;2023-03-21T14:43:18;20.02;;;3.33;;
15629;SDS011;7914;50.842;0.166;2023-03-21T14:45:49;25.88;;;3.63;;
15629;SDS011;7914;50.842;0.166;2023-03-21T14:48:17;19.35;;;3.10;;
15629;SDS011;7914;50.842;0.166;2023-03-21T14:50:54;19.25;;;4.03;;
15629;SDS011;7914;50.842;0.166;2023-03-21T14:53:28;21.40;;;3.70;;
15629;SDS011;7914;50.842;0.166;2023-03-21T14:58:32;16.48;;;3.50;;
15629;SDS011;7914;50.842;0.166;2023-03-21T15:01:02;21.73;;;4.28;;
15629;SDS011;7914;50.842;0.166;2023-03-21T15:03:29;21.40;;;3.97;;
15629;SDS011;7914;50.842;0.166;2023-03-21T15:05:59;22.65;;;3.95;;
15629;SDS011;7914;50.842;0.166;2023-03-21T15:08:27;22.13;;;3.30;;
15629;SDS011;7914;50.842;0.166;2023-03-21T15:11:03;17.98;;;4.05;;
15629;SDS011;7914;50.842;0.166;2023-03-21T15:13:49;17.40;;;4.00;;
15629;SDS011;7914;50.842;0.166;2023-03-21T15:16:19;28.38;;;4.60;;
15629;SDS011;7914;50.842;0.166;2023-03-21T15:18:45;20.60;;;3.63;;
15629;SDS011;7914;50.842;0.166;2023-03-21T15:21:22;23.35;;;3.78;;
15629;SDS011;7914;50.842;0.166;2023-03-21T15:23:53;19.63;;;4.25;;
15629;SDS011;7914;50.842;0.166;2023-03-21T15:26:28;26.08;;;4.72;;
15629;SDS011;7914;50.842;0.166;2023-03-21T15:28:58;23.35;;;4.65;;
15629;SDS011;7914;50.842;0.166;2023-03-21T15:31:29;23.40;;;4.05;;
15629;SDS011;7914;50.842;0.166;2023-03-21T15:33:58;16.60;;;3.15;;
15629;SDS011;7914;50.842;0.166;2023-03-21T15:36:28;23.17;;;4.20;;
15629;SDS011;7914;50.842;0.166;2023-03-21T15:39:00;20.13;;;3.58;;
15629;SDS011;7914;50.842;0.166;2023-03-21T15:41:30;20.08;;;3.28;;
15629;SDS011;7914;50.842;0.166;2023-03-21T15:49:07;21.08;;;3.42;;
15629;SDS011;7914;50.842;0.166;2023-03-21T15:51:36;18.38;;;4.47;;
15629;SDS011;7914;50.842;0.166;2023-03-21T15:54:02;22.25;;;3.80;;
15629;SDS011;7914;50.842;0.166;2023-03-21T15:56:31;25.30;;;4.63;;
15629;SDS011;7914;50.842;0.166;2023-03-21T15:59:02;25.15;;;4.55;;
15629;SDS011;7914;50.842;0.166;2023-03-21T16:01:29;24.17;;;3.65;;
15629;SDS011;7914;50.842;0.166;2023-03-21T16:04:11;20.45;;;3.80;;
15629;SDS011;7914;50.842;0.166;2023-03-21T16:09:15;23.90;;;3.47;;
15629;SDS011;7914;50.842;0.166;2023-03-21T16:11:49;25.73;;;4.88;;
15629;SDS011;7914;50.842;0.166;2023-03-21T16:14:16;20.55;;;3.58;;
15629;SDS011;7914;50.842;0.166;2023-03-21T16:16:45;21.80;;;4.28;;
15629;SDS011;7914;50.842;0.166;2023-03-21T16:19:12;29.58;;;3.35;;
15629;SDS011;7914;50.842;0.166;2023-03-21T16:21:41;21.13;;;3.60;;
15629;SDS011;7914;50.842;0.166;2023-03-21T16:24:07;23.45;;;5.20;;
15629;SDS011;7914;50.842;0.166;2023-03-21T16:26:40;23.92;;;4.40;;
15629;SDS011;7914;50.842;0.166;2023-03-21T16:29:15;29.80;;;4.03;;
15629;SDS011;7914;50.842;0.166;2023-03-21T16:31:42;23.42;;;3.92;;
15629;SDS011;7914;50.842;0.166;2023-03-21T16:34:09;19.80;;;3.28;;
15629;SDS011;7914;50.842;0.166;2023-03-21T16:36:37;19.88;;;4.03;;
15629;SDS011;7914;50.842;0.166;2023-03-21T16:39:15;20.10;;;3.88;;
15629;SDS011;7914;50.842;0.166;2023-03-21T16:41:46;19.67;;;3.08;;
15629;SDS011;7914;50.842;0.166;2023-03-21T16:44:13;25.42;;;4.05;;
15629;SDS011;7914;50.842;0.166;2023-03-21T16:46:38;27.83;;;3.75;;
15629;SDS011;7914;50.842;0.166;2023-03-21T16:49:04;17.13;;;3.40;;
15629;SDS011;7914;50.842;0.166;2023-03-21T16:51:51;26.48;;;3.92;;
15629;SDS011;7914;50.842;0.166;2023-03-21T16:54:19;21.75;;;3.92;;
15629;SDS011;7914;50.842;0.166;2023-03-21T16:56:49;26.02;;;3.95;;
15629;SDS011;7914;50.842;0.166;2023-03-21T16:59:17;20.35;;;3.53;;
15629;SDS011;7914;50.842;0.166;2023-03-21T17:01:43;24.25;;;3.67;;
15629;SDS011;7914;50.842;0.166;2023-03-21T17:04:13;25.15;;;4.47;;
15629;SDS011;7914;50.842;0.166;2023-03-21T17:06:44;18.00;;;3.38;;
15629;SDS011;7914;50.842;0.166;2023-03-21T17:09:14;19.30;;;3.75;;
15629;SDS011;7914;50.842;0.166;2023-03-21T17:11:43;31.08;;;4.15;;
15629;SDS011;7914;50.842;0.166;2023-03-21T17:14:10;22.27;;;3.83;;